Aviation Digital Data Service (ADDS)

Output produced by TAFs form (2353 UTC 19 October 2017)
found at http://aviationweather.gov/adds/tafs/
 
KCLT 192252Z 18005KT 10SM CLR 21/06 A3023 RMK AO2 SLP234 T02060056
KCLT 192324Z 2000/2024 00000KT P6SM SKC 
     FM201400 03003KT P6SM SKC